sensor_id;sensor_type;location;lat;lon;timestamp;pressure;altitude;pressure_sealevel;temperature;humidity
58534;BME280;44109;52.398;7.024;2023-11-18T00:02:10;102208.53;;;2.18;100.00
58534;BME280;44109;52.398;7.024;2023-11-18T00:04:38;102201.13;;;2.24;100.00
58534;BME280;44109;52.398;7.024;2023-11-18T00:07:05;102207.13;;;2.26;100.00
58534;BME280;44109;52.398;7.024;2023-11-18T00:09:32;102199.69;;;2.32;100.00
58534;BME280;44109;52.398;7.024;2023-11-18T00:12:00;102190.97;;;2.24;100.00
58534;BME280;44109;52.398;7.024;2023-11-18T00:14:27;102207.34;;;2.40;100.00
58534;BME280;44109;52.398;7.024;2023-11-18T00:16:55;102185.78;;;2.28;100.00
58534;BME280;44109;52.398;7.024;2023-11-18T00:19:26;102195.28;;;2.46;100.00
58534;BME280;44109;52.398;7.024;2023-11-18T00:21:53;102195.00;;;2.47;100.00
58534;BME280;44109;52.398;7.024;2023-11-18T00:24:21;102201.84;;;2.50;100.00
58534;BME280;44109;52.398;7.024;2023-11-18T00:26:48;102202.34;;;2.57;100.00
58534;BME280;44109;52.398;7.024;2023-11-18T00:29:16;102201.75;;;2.65;100.00
58534;BME280;44109;52.398;7.024;2023-11-18T00:31:43;102196.78;;;2.67;100.00
58534;BME280;44109;52.398;7.024;2023-11-18T00:34:10;102201.22;;;2.58;100.00
58534;BME280;44109;52.398;7.024;2023-11-18T00:36:40;102201.19;;;2.68;100.00
58534;BME280;44109;52.398;7.024;2023-11-18T00:39:07;102197.06;;;2.71;100.00
58534;BME280;44109;52.398;7.024;2023-11-18T00:41:34;102186.94;;;2.66;100.00
58534;BME280;44109;52.398;7.024;2023-11-18T00:44:02;102204.13;;;2.77;100.00
58534;BME280;44109;52.398;7.024;2023-11-18T00:46:29;102192.97;;;2.68;100.00
58534;BME280;44109;52.398;7.024;2023-11-18T00:48:57;102192.94;;;2.73;100.00
58534;BME280;44109;52.398;7.024;2023-11-18T00:51:24;102203.09;;;2.68;100.00
58534;BME280;44109;52.398;7.024;2023-11-18T00:53:54;102202.00;;;2.74;100.00
58534;BME280;44109;52.398;7.024;2023-11-18T00:56:21;102194.88;;;2.68;100.00
58534;BME280;44109;52.398;7.024;2023-11-18T00:58:49;102172.22;;;2.57;100.00
58534;BME280;44109;52.398;7.024;2023-11-18T01:01:16;102196.19;;;2.80;100.00
58534;BME280;44109;52.398;7.024;2023-11-18T01:03:44;102191.00;;;2.79;100.00
58534;BME280;44109;52.398;7.024;2023-11-18T01:06:11;102189.88;;;2.80;100.00
58534;BME280;44109;52.398;7.024;2023-11-18T01:08:39;102188.84;;;2.71;100.00
58534;BME280;44109;52.398;7.024;2023-11-18T01:11:08;102207.16;;;2.75;100.00
58534;BME280;44109;52.398;7.024;2023-11-18T01:13:35;102187.47;;;2.73;100.00
58534;BME280;44109;52.398;7.024;2023-11-18T01:16:03;102206.03;;;2.87;100.00
58534;BME280;44109;52.398;7.024;2023-11-18T01:18:31;102207.66;;;2.88;100.00
58534;BME280;44109;52.398;7.024;2023-11-18T01:20:59;102214.47;;;2.90;100.00
58534;BME280;44109;52.398;7.024;2023-11-18T01:23:26;102213.09;;;2.93;100.00
58534;BME280;44109;52.398;7.024;2023-11-18T01:25:53;102204.06;;;2.92;100.00
58534;BME280;44109;52.398;7.024;2023-11-18T01:28:23;102206.47;;;2.99;100.00
58534;BME280;44109;52.398;7.024;2023-11-18T01:30:52;102218.56;;;2.98;100.00
58534;BME280;44109;52.398;7.024;2023-11-18T01:33:19;102214.16;;;3.02;100.00
58534;BME280;44109;52.398;7.024;2023-11-18T01:35:47;102203.19;;;3.02;100.00
58534;BME280;44109;52.398;7.024;2023-11-18T01:38:14;102207.84;;;3.01;100.00
58534;BME280;44109;52.398;7.024;2023-11-18T01:40:41;102203.75;;;2.99;100.00
58534;BME280;44109;52.398;7.024;2023-11-18T01:43:09;102207.34;;;2.94;100.00
58534;BME280;44109;52.398;7.024;2023-11-18T01:45:41;102208.16;;;2.95;100.00
58534;BME280;44109;52.398;7.024;2023-11-18T01:48:09;102203.25;;;2.92;100.00
58534;BME280;44109;52.398;7.024;2023-11-18T01:50:36;102198.88;;;2.91;100.00
58534;BME280;44109;52.398;7.024;2023-11-18T01:53:06;102201.63;;;2.91;100.00
58534;BME280;44109;52.398;7.024;2023-11-18T01:55:35;102199.97;;;2.90;100.00
58534;BME280;44109;52.398;7.024;2023-11-18T01:58:04;102202.66;;;2.95;100.00
58534;BME280;44109;52.398;7.024;2023-11-18T02:00:36;102196.63;;;2.98;100.00
58534;BME280;44109;52.398;7.024;2023-11-18T02:03:06;102211.09;;;3.03;100.00
58534;BME280;44109;52.398;7.024;2023-11-18T02:05:36;102203.19;;;3.02;100.00
58534;BME280;44109;52.398;7.024;2023-11-18T02:08:04;102216.88;;;3.02;100.00
58534;BME280;44109;52.398;7.024;2023-11-18T02:10:33;102206.44;;;3.04;100.00
58534;BME280;44109;52.398;7.024;2023-11-18T02:13:06;102207.28;;;2.99;100.00
58534;BME280;44109;52.398;7.024;2023-11-18T02:15:40;102187.69;;;2.82;100.00
58534;BME280;44109;52.398;7.024;2023-11-18T02:18:10;102213.09;;;2.93;100.00
58534;BME280;44109;52.398;7.024;2023-11-18T02:20:39;102198.38;;;2.84;100.00
58534;BME280;44109;52.398;7.024;2023-11-18T02:23:08;102206.31;;;2.80;100.00
58534;BME280;44109;52.398;7.024;2023-11-18T02:25:42;102201.09;;;2.84;100.00
58534;BME280;44109;52.398;7.024;2023-11-18T02:28:11;102194.03;;;2.77;100.00
58534;BME280;44109;52.398;7.024;2023-11-18T02:30:40;102184.69;;;2.78;100.00
58534;BME280;44109;52.398;7.024;2023-11-18T02:33:15;102193.19;;;2.82;100.00
58534;BME280;44109;52.398;7.024;2023-11-18T02:35:51;102186.84;;;2.82;100.00
58534;BME280;44109;52.398;7.024;2023-11-18T02:38:28;102166.41;;;2.69;100.00
58534;BME280;44109;52.398;7.024;2023-11-18T02:41:04;102187.94;;;2.86;100.00
58534;BME280;44109;52.398;7.024;2023-11-18T02:43:37;102196.69;;;2.88;100.00
58534;BME280;44109;52.398;7.024;2023-11-18T02:46:06;102183.78;;;2.93;100.00
58534;BME280;44109;52.398;7.024;2023-11-18T02:48:35;102179.88;;;2.99;100.00
58534;BME280;44109;52.398;7.024;2023-11-18T02:51:05;102176.59;;;3.02;100.00
58534;BME280;44109;52.398;7.024;2023-11-18T02:53:34;102174.13;;;3.01;100.00
58534;BME280;44109;52.398;7.024;2023-11-18T02:56:03;102182.06;;;3.02;100.00
58534;BME280;44109;52.398;7.024;2023-11-18T02:58:32;102181.78;;;3.04;100.00
58534;BME280;44109;52.398;7.024;2023-11-18T03:01:00;102176.31;;;2.99;100.00
58534;BME280;44109;52.398;7.024;2023-11-18T03:03:27;102162.66;;;2.94;100.00
58534;BME280;44109;52.398;7.024;2023-11-18T03:05:54;102175.78;;;3.02;100.00
58534;BME280;44109;52.398;7.024;2023-11-18T03:08:22;102175.84;;;2.92;100.00
58534;BME280;44109;52.398;7.024;2023-11-18T03:10:49;102166.44;;;3.03;100.00
58534;BME280;44109;52.398;7.024;2023-11-18T03:13:19;102156.28;;;3.03;100.00
58534;BME280;44109;52.398;7.024;2023-11-18T03:15:47;102164.19;;;3.10;100.00
58534;BME280;44109;52.398;7.024;2023-11-18T03:18:14;102158.94;;;3.19;100.00
58534;BME280;44109;52.398;7.024;2023-11-18T03:20:42;102151.75;;;3.23;100.00
58534;BME280;44109;52.398;7.024;2023-11-18T03:23:09;102144.91;;;3.20;100.00
58534;BME280;44109;52.398;7.024;2023-11-18T03:25:37;102139.44;;;3.20;100.00
58534;BME280;44109;52.398;7.024;2023-11-18T03:28:05;102141.66;;;3.18;100.00
58534;BME280;44109;52.398;7.024;2023-11-18T03:30:34;102143.84;;;3.16;100.00
58534;BME280;44109;52.398;7.024;2023-11-18T03:33:03;102142.28;;;3.10;100.00
58534;BME280;44109;52.398;7.024;2023-11-18T03:35:30;102143.22;;;2.95;100.00
58534;BME280;44109;52.398;7.024;2023-11-18T03:37:58;102139.88;;;2.98;100.00
58534;BME280;44109;52.398;7.024;2023-11-18T03:40:26;102142.38;;;2.95;100.00
58534;BME280;44109;52.398;7.024;2023-11-18T03:42:54;102154.44;;;2.94;100.00
58534;BME280;44109;52.398;7.024;2023-11-18T03:45:22;102159.66;;;2.95;100.00
58534;BME280;44109;52.398;7.024;2023-11-18T03:47:51;102154.44;;;2.94;100.00
58534;BME280;44109;52.398;7.024;2023-11-18T03:50:18;102145.69;;;2.92;100.00
58534;BME280;44109;52.398;7.024;2023-11-18T03:52:46;102138.03;;;2.89;100.00
58534;BME280;44109;52.398;7.024;2023-11-18T03:55:13;102134.78;;;2.82;100.00
58534;BME280;44109;52.398;7.024;2023-11-18T03:57:41;102142.22;;;2.76;100.00
58534;BME280;44109;52.398;7.024;2023-11-18T04:00:09;102144.16;;;2.75;100.00
58534;BME280;44109;52.398;7.024;2023-11-18T04:02:37;102140.91;;;2.73;100.00
58534;BME280;44109;52.398;7.024;2023-11-18T04:05:09;102144.44;;;2.74;100.00
58534;BME280;44109;52.398;7.024;2023-11-18T04:07:36;102143.91;;;2.72;100.00
58534;BME280;44109;52.398;7.024;2023-11-18T04:10:04;102141.44;;;2.70;100.00
58534;BME280;44109;52.398;7.024;2023-11-18T04:12:33;102142.25;;;2.71;100.00
58534;BME280;44109;52.398;7.024;2023-11-18T04:15:00;102145.25;;;2.74;100.00
58534;BME280;44109;52.398;7.024;2023-11-18T04:17:30;102143.31;;;2.80;100.00
58534;BME280;44109;52.398;7.024;2023-11-18T04:19:57;102142.19;;;2.86;100.00
58534;BME280;44109;52.398;7.024;2023-11-18T04:22:26;102127.63;;;2.91;100.00
58534;BME280;44109;52.398;7.024;2023-11-18T04:24:53;102117.19;;;2.93;100.00
58534;BME280;44109;52.398;7.024;2023-11-18T04:27:21;102118.28;;;2.92;100.00
58534;BME280;44109;52.398;7.024;2023-11-18T04:29:48;102114.75;;;2.91;100.00
58534;BME280;44109;52.398;7.024;2023-11-18T04:32:16;102104.59;;;2.92;100.00
58534;BME280;44109;52.398;7.024;2023-11-18T04:34:44;102110.03;;;2.97;100.00
58534;BME280;44109;52.398;7.024;2023-11-18T04:37:11;102109.47;;;3.00;100.00
58534;BME280;44109;52.398;7.024;2023-11-18T04:39:40;102097.03;;;3.08;100.00
58534;BME280;44109;52.398;7.024;2023-11-18T04:42:07;102095.38;;;3.12;100.00
58534;BME280;44109;52.398;7.024;2023-11-18T04:44:35;102092.31;;;3.18;100.00
58534;BME280;44109;52.398;7.024;2023-11-18T04:47:02;102089.72;;;3.27;100.00
58534;BME280;44109;52.398;7.024;2023-11-18T04:49:30;102095.41;;;3.36;100.00
58534;BME280;44109;52.398;7.024;2023-11-18T04:51:58;102090.41;;;3.43;100.00
58534;BME280;44109;52.398;7.024;2023-11-18T04:54:25;102087.91;;;3.46;100.00
58534;BME280;44109;52.398;7.024;2023-11-18T04:56:54;102087.56;;;3.53;100.00
58534;BME280;44109;52.398;7.024;2023-11-18T04:59:22;102088.31;;;3.59;100.00
58534;BME280;44109;52.398;7.024;2023-11-18T05:01:49;102097.66;;;3.58;100.00
58534;BME280;44109;52.398;7.024;2023-11-18T05:04:19;102091.91;;;3.59;100.00
58534;BME280;44109;52.398;7.024;2023-11-18T05:06:46;102094.66;;;3.59;100.00
58534;BME280;44109;52.398;7.024;2023-11-18T05:09:14;102077.88;;;3.61;100.00
58534;BME280;44109;52.398;7.024;2023-11-18T05:11:44;102073.22;;;3.61;100.00
58534;BME280;44109;52.398;7.024;2023-11-18T05:14:13;102068.28;;;3.58;100.00
58534;BME280;44109;52.398;7.024;2023-11-18T05:16:42;102064.22;;;3.55;100.00
58534;BME280;44109;52.398;7.024;2023-11-18T05:19:10;102061.75;;;3.54;100.00
58534;BME280;44109;52.398;7.024;2023-11-18T05:21:37;102055.25;;;3.50;100.00
58534;BME280;44109;52.398;7.024;2023-11-18T05:24:05;102063.41;;;3.55;100.00
58534;BME280;44109;52.398;7.024;2023-11-18T05:26:33;102064.41;;;3.64;100.00
58534;BME280;44109;52.398;7.024;2023-11-18T05:29:01;102058.84;;;3.69;100.00
58534;BME280;44109;52.398;7.024;2023-11-18T05:31:30;102066.44;;;3.77;100.00
58534;BME280;44109;52.398;7.024;2023-11-18T05:33:58;102085.00;;;3.86;100.00
58534;BME280;44109;52.398;7.024;2023-11-18T05:36:25;102084.09;;;3.90;100.00
58534;BME280;44109;52.398;7.024;2023-11-18T05:38:53;102083.84;;;3.92;100.00
58534;BME280;44109;52.398;7.024;2023-11-18T05:41:21;102068.41;;;3.96;100.00
58534;BME280;44109;52.398;7.024;2023-11-18T05:43:53;102011.78;;;3.57;100.00
58534;BME280;44109;52.398;7.024;2023-11-18T05:46:23;102072.47;;;3.98;100.00
58534;BME280;44109;52.398;7.024;2023-11-18T05:48:53;102077.09;;;4.03;100.00
58534;BME280;44109;52.398;7.024;2023-11-18T05:51:22;102066.41;;;4.01;100.00
58534;BME280;44109;52.398;7.024;2023-11-18T05:53:50;102071.84;;;4.06;100.00
58534;BME280;44109;52.398;7.024;2023-11-18T05:56:18;102062.47;;;4.07;100.00
58534;BME280;44109;52.398;7.024;2023-11-18T05:58:48;102066.84;;;4.08;100.00
58534;BME280;44109;52.398;7.024;2023-11-18T06:01:15;102061.66;;;4.07;100.00
58534;BME280;44109;52.398;7.024;2023-11-18T06:03:44;102061.34;;;4.08;100.00
58534;BME280;44109;52.398;7.024;2023-11-18T06:06:15;102056.47;;;4.05;100.00
58534;BME280;44109;52.398;7.024;2023-11-18T06:08:43;102062.78;;;4.06;100.00
58534;BME280;44109;52.398;7.024;2023-11-18T06:11:11;102050.16;;;4.05;100.00
58534;BME280;44109;52.398;7.024;2023-11-18T06:13:44;102053.00;;;4.00;100.00
58534;BME280;44109;52.398;7.024;2023-11-18T06:16:13;102051.34;;;3.99;100.00
58534;BME280;44109;52.398;7.024;2023-11-18T06:18:42;102046.44;;;3.96;100.00
58534;BME280;44109;52.398;7.024;2023-11-18T06:21:13;102050.91;;;3.92;100.00
58534;BME280;44109;52.398;7.024;2023-11-18T06:23:40;102054.75;;;3.91;100.00
58534;BME280;44109;52.398;7.024;2023-11-18T06:26:08;102052.59;;;3.88;100.00
58534;BME280;44109;52.398;7.024;2023-11-18T06:28:38;102046.78;;;3.89;100.00
58534;BME280;44109;52.398;7.024;2023-11-18T06:31:06;102041.03;;;3.91;100.00
58534;BME280;44109;52.398;7.024;2023-11-18T06:33:39;102041.31;;;3.89;100.00
58534;BME280;44109;52.398;7.024;2023-11-18T06:36:09;102046.44;;;3.96;100.00
58534;BME280;44109;52.398;7.024;2023-11-18T06:38:39;102017.22;;;3.86;100.00
58534;BME280;44109;52.398;7.024;2023-11-18T06:41:07;102038.66;;;4.03;100.00
58534;BME280;44109;52.398;7.024;2023-11-18T06:43:36;102034.50;;;4.05;100.00
58534;BME280;44109;52.398;7.024;2023-11-18T06:46:21;102027.84;;;4.12;100.00
58534;BME280;44109;52.398;7.024;2023-11-18T06:48:50;102028.63;;;4.12;100.00
58534;BME280;44109;52.398;7.024;2023-11-18T06:51:20;102008.44;;;4.03;100.00
58534;BME280;44109;52.398;7.024;2023-11-18T06:53:50;102026.63;;;4.18;100.00
58534;BME280;44109;52.398;7.024;2023-11-18T06:56:18;102029.91;;;4.20;100.00
58534;BME280;44109;52.398;7.024;2023-11-18T06:58:45;102039.47;;;4.22;100.00
58534;BME280;44109;52.398;7.024;2023-11-18T07:01:13;102051.56;;;4.21;100.00
58534;BME280;44109;52.398;7.024;2023-11-18T07:03:41;102044.97;;;4.22;100.00
58534;BME280;44109;52.398;7.024;2023-11-18T07:06:08;102042.75;;;4.24;100.00
58534;BME280;44109;52.398;7.024;2023-11-18T07:08:36;102042.75;;;4.24;100.00
58534;BME280;44109;52.398;7.024;2023-11-18T07:11:06;102028.44;;;4.27;100.00
58534;BME280;44109;52.398;7.024;2023-11-18T07:13:33;102039.34;;;4.32;100.00
58534;BME280;44109;52.398;7.024;2023-11-18T07:16:01;102047.50;;;4.38;100.00
58534;BME280;44109;52.398;7.024;2023-11-18T07:18:29;102055.69;;;4.43;100.00
58534;BME280;44109;52.398;7.024;2023-11-18T07:20:58;102051.81;;;4.44;100.00
58534;BME280;44109;52.398;7.024;2023-11-18T07:23:26;102055.09;;;4.46;100.00
58534;BME280;44109;52.398;7.024;2023-11-18T07:25:53;102059.16;;;4.48;100.00
58534;BME280;44109;52.398;7.024;2023-11-18T07:28:23;102052.03;;;4.47;100.00
58534;BME280;44109;52.398;7.024;2023-11-18T07:30:52;102065.47;;;4.49;100.00
58534;BME280;44109;52.398;7.024;2023-11-18T07:33:20;102061.91;;;4.48;100.00
58534;BME280;44109;52.398;7.024;2023-11-18T07:35:48;102058.34;;;4.48;100.00
58534;BME280;44109;52.398;7.024;2023-11-18T07:38:16;102072.63;;;4.50;100.00
58534;BME280;44109;52.398;7.024;2023-11-18T07:40:46;102055.50;;;4.53;100.00
58534;BME280;44109;52.398;7.024;2023-11-18T07:43:14;102047.81;;;4.55;100.00
58534;BME280;44109;52.398;7.024;2023-11-18T07:45:43;102037.47;;;4.47;100.00
58534;BME280;44109;52.398;7.024;2023-11-18T07:48:12;102059.94;;;4.68;100.00
58534;BME280;44109;52.398;7.024;2023-11-18T07:50:43;102061.53;;;4.74;100.00
58534;BME280;44109;52.398;7.024;2023-11-18T07:53:11;102059.50;;;4.79;100.00
58534;BME280;44109;52.398;7.024;2023-11-18T07:55:38;102063.78;;;4.86;100.00
58534;BME280;44109;52.398;7.024;2023-11-18T07:58:06;102026.69;;;4.69;100.00
58534;BME280;44109;52.398;7.024;2023-11-18T08:00:37;102057.91;;;4.92;100.00
58534;BME280;44109;52.398;7.024;2023-11-18T08:03:06;102058.97;;;4.96;100.00
58534;BME280;44109;52.398;7.024;2023-11-18T08:05:37;102060.19;;;5.04;100.00
58534;BME280;44109;52.398;7.024;2023-11-18T08:08:05;102060.94;;;5.09;100.00
58534;BME280;44109;52.398;7.024;2023-11-18T08:10:34;102066.84;;;5.17;100.00
58534;BME280;44109;52.398;7.024;2023-11-18T08:13:04;102062.09;;;5.22;100.00
58534;BME280;44109;52.398;7.024;2023-11-18T08:15:32;102060.75;;;5.20;100.00
58534;BME280;44109;52.398;7.024;2023-11-18T08:18:00;102056.97;;;5.29;100.00
58534;BME280;44109;52.398;7.024;2023-11-18T08:20:30;102043.94;;;5.35;100.00
58534;BME280;44109;52.398;7.024;2023-11-18T08:22:57;102052.50;;;5.33;100.00
58534;BME280;44109;52.398;7.024;2023-11-18T08:25:25;102053.91;;;5.31;100.00
58534;BME280;44109;52.398;7.024;2023-11-18T08:27:52;102054.75;;;5.31;100.00
58534;BME280;44109;52.398;7.024;2023-11-18T08:30:20;102044.38;;;5.42;100.00
58534;BME280;44109;52.398;7.024;2023-11-18T08:32:49;102042.34;;;5.48;100.00
58534;BME280;44109;52.398;7.024;2023-11-18T08:35:17;102026.03;;;5.51;100.00
58534;BME280;44109;52.398;7.024;2023-11-18T08:37:45;102003.31;;;5.46;100.00
58534;BME280;44109;52.398;7.024;2023-11-18T08:40:14;102008.06;;;5.54;100.00
58534;BME280;44109;52.398;7.024;2023-11-18T08:42:43;101986.47;;;5.47;100.00
58534;BME280;44109;52.398;7.024;2023-11-18T08:45:16;102010.75;;;5.59;100.00
58534;BME280;44109;52.398;7.024;2023-11-18T08:47:44;102004.81;;;5.66;100.00
58534;BME280;44109;52.398;7.024;2023-11-18T08:50:13;102005.03;;;5.69;100.00
58534;BME280;44109;52.398;7.024;2023-11-18T08:52:42;102006.25;;;5.77;100.00
58534;BME280;44109;52.398;7.024;2023-11-18T08:55:14;102010.00;;;5.81;100.00
58534;BME280;44109;52.398;7.024;2023-11-18T08:57:48;101981.38;;;5.68;100.00
58534;BME280;44109;52.398;7.024;2023-11-18T09:00:24;101988.88;;;5.90;100.00
58534;BME280;44109;52.398;7.024;2023-11-18T09:03:11;101967.59;;;5.82;100.00
58534;BME280;44109;52.398;7.024;2023-11-18T09:05:44;101971.34;;;6.00;100.00
58534;BME280;44109;52.398;7.024;2023-11-18T09:08:24;101966.22;;;6.07;100.00
58534;BME280;44109;52.398;7.024;2023-11-18T09:10:54;101950.50;;;6.07;100.00
58534;BME280;44109;52.398;7.024;2023-11-18T09:13:23;101961.09;;;6.14;100.00
58534;BME280;44109;52.398;7.024;2023-11-18T09:15:55;101947.81;;;6.16;100.00
58534;BME280;44109;52.398;7.024;2023-11-18T09:18:23;101942.06;;;6.26;100.00
58534;BME280;44109;52.398;7.024;2023-11-18T09:20:52;101948.09;;;6.28;100.00
58534;BME280;44109;52.398;7.024;2023-11-18T09:23:21;101945.34;;;6.28;100.00
58534;BME280;44109;52.398;7.024;2023-11-18T09:25:51;101949.91;;;6.33;100.00
58534;BME280;44109;52.398;7.024;2023-11-18T09:28:21;101922.16;;;6.29;100.00
58534;BME280;44109;52.398;7.024;2023-11-18T09:30:51;101955.34;;;6.47;100.00
58534;BME280;44109;52.398;7.024;2023-11-18T09:33:25;101943.19;;;6.48;100.00
58534;BME280;44109;52.398;7.024;2023-11-18T09:35:55;101947.97;;;6.56;100.00
58534;BME280;44109;52.398;7.024;2023-11-18T09:38:26;101959.03;;;6.65;100.00
58534;BME280;44109;52.398;7.024;2023-11-18T09:40:57;101944.00;;;6.71;100.00
58534;BME280;44109;52.398;7.024;2023-11-18T09:43:30;101930.34;;;6.66;100.00
58534;BME280;44109;52.398;7.024;2023-11-18T09:46:04;101915.41;;;6.67;100.00
58534;BME280;44109;52.398;7.024;2023-11-18T09:48:42;101934.19;;;6.87;100.00
58534;BME280;44109;52.398;7.024;2023-11-18T09:51:19;101923.34;;;6.99;100.00
58534;BME280;44109;52.398;7.024;2023-11-18T09:53:49;101914.78;;;7.01;100.00
58534;BME280;44109;52.398;7.024;2023-11-18T09:56:23;101918.69;;;7.00;100.00
58534;BME280;44109;52.398;7.024;2023-11-18T09:59:10;101919.50;;;7.00;100.00
58534;BME280;44109;52.398;7.024;2023-11-18T10:01:43;101924.06;;;7.05;100.00
58534;BME280;44109;52.398;7.024;2023-11-18T10:04:13;101921.16;;;7.10;100.00
58534;BME280;44109;52.398;7.024;2023-11-18T10:06:44;101898.72;;;7.03;100.00
58534;BME280;44109;52.398;7.024;2023-11-18T10:09:14;101908.31;;;7.05;100.00
58534;BME280;44109;52.398;7.024;2023-11-18T10:11:54;101903.13;;;7.12;100.00
58534;BME280;44109;52.398;7.024;2023-11-18T10:14:27;101912.44;;;7.25;100.00
58534;BME280;44109;52.398;7.024;2023-11-18T10:16:55;101914.38;;;7.25;100.00
58534;BME280;44109;52.398;7.024;2023-11-18T10:19:23;101903.66;;;7.23;100.00
58534;BME280;44109;52.398;7.024;2023-11-18T10:21:51;101884.66;;;7.30;100.00
58534;BME280;44109;52.398;7.024;2023-11-18T10:24:22;101873.63;;;7.30;100.00
58534;BME280;44109;52.398;7.024;2023-11-18T10:26:55;101890.22;;;7.48;100.00
58534;BME280;44109;52.398;7.024;2023-11-18T10:29:24;101874.19;;;7.50;100.00
58534;BME280;44109;52.398;7.024;2023-11-18T10:32:04;101861.50;;;7.49;100.00
58534;BME280;44109;52.398;7.024;2023-11-18T10:34:35;101860.69;;;7.48;100.00
58534;BME280;44109;52.398;7.024;2023-11-18T10:37:03;101859.72;;;7.53;100.00
58534;BME280;44109;52.398;7.024;2023-11-18T10:39:32;101852.22;;;7.53;100.00
58534;BME280;44109;52.398;7.024;2023-11-18T10:42:01;101849.47;;;7.53;100.00
58534;BME280;44109;52.398;7.024;2023-11-18T10:44:30;101843.31;;;7.48;100.00
58534;BME280;44109;52.398;7.024;2023-11-18T10:46:58;101836.97;;;7.47;100.00
58534;BME280;44109;52.398;7.024;2023-11-18T10:49:28;101838.94;;;7.47;100.00
58534;BME280;44109;52.398;7.024;2023-11-18T10:52:03;101836.16;;;7.47;100.00
58534;BME280;44109;52.398;7.024;2023-11-18T10:54:34;101833.56;;;7.42;100.00
58534;BME280;44109;52.398;7.024;2023-11-18T10:57:03;101838.59;;;7.48;100.00
58534;BME280;44109;52.398;7.024;2023-11-18T10:59:34;101838.91;;;7.38;100.00
58534;BME280;44109;52.398;7.024;2023-11-18T11:02:17;101830.63;;;7.47;100.00
58534;BME280;44109;52.398;7.024;2023-11-18T11:04:48;101836.34;;;7.50;100.00
58534;BME280;44109;52.398;7.024;2023-11-18T11:07:17;101825.44;;;7.54;100.00
58534;BME280;44109;52.398;7.024;2023-11-18T11:09:46;101815.38;;;7.58;100.00
58534;BME280;44109;52.398;7.024;2023-11-18T11:12:16;101802.53;;;7.62;100.00
58534;BME280;44109;52.398;7.024;2023-11-18T11:14:50;101764.72;;;7.36;100.00
58534;BME280;44109;52.398;7.024;2023-11-18T11:17:27;101822.38;;;7.64;100.00
58534;BME280;44109;52.398;7.024;2023-11-18T11:20:04;101831.63;;;7.68;100.00
58534;BME280;44109;52.398;7.024;2023-11-18T11:22:50;101815.38;;;7.58;100.00
58534;BME280;44109;52.398;7.024;2023-11-18T11:25:37;101813.91;;;7.60;100.00
58534;BME280;44109;52.398;7.024;2023-11-18T11:28:13;101794.25;;;7.62;100.00
58534;BME280;44109;52.398;7.024;2023-11-18T11:30:50;101792.97;;;7.68;100.00
58534;BME280;44109;52.398;7.024;2023-11-18T11:33:29;101785.81;;;7.67;100.00
58534;BME280;44109;52.398;7.024;2023-11-18T11:36:11;101784.50;;;7.73;100.00
58534;BME280;44109;52.398;7.024;2023-11-18T11:38:42;101753.50;;;7.59;100.00
58534;BME280;44109;52.398;7.024;2023-11-18T11:41:13;101782.22;;;7.75;100.00
58534;BME280;44109;52.398;7.024;2023-11-18T11:43:46;101762.09;;;7.75;100.00
58534;BME280;44109;52.398;7.024;2023-11-18T11:46:15;101786.47;;;7.81;100.00
58534;BME280;44109;52.398;7.024;2023-11-18T11:48:49;101794.41;;;7.74;100.00
58534;BME280;44109;52.398;7.024;2023-11-18T11:51:24;101776.06;;;7.78;100.00
58534;BME280;44109;52.398;7.024;2023-11-18T11:53:59;101762.41;;;7.82;100.00
58534;BME280;44109;52.398;7.024;2023-11-18T11:56:42;101767.63;;;7.66;100.00
58534;BME280;44109;52.398;7.024;2023-11-18T11:59:15;101761.44;;;7.69;100.00
58534;BME280;44109;52.398;7.024;2023-11-18T12:01:42;101770.06;;;7.68;100.00
58534;BME280;44109;52.398;7.024;2023-11-18T12:04:14;101767.28;;;7.76;100.00
58534;BME280;44109;52.398;7.024;2023-11-18T12:06:49;101756.91;;;7.73;100.00
58534;BME280;44109;52.398;7.024;2023-11-18T12:09:22;101751.19;;;7.78;100.00
58534;BME280;44109;52.398;7.024;2023-11-18T12:11:59;101750.22;;;7.83;100.00
58534;BME280;44109;52.398;7.024;2023-11-18T12:14:28;101734.63;;;7.78;100.00
58534;BME280;44109;52.398;7.024;2023-11-18T12:17:07;101720.19;;;7.81;100.00
58534;BME280;44109;52.398;7.024;2023-11-18T12:19:36;101717.88;;;7.83;100.00
58534;BME280;44109;52.398;7.024;2023-11-18T12:22:14;101720.47;;;7.80;100.00
58534;BME280;44109;52.398;7.024;2023-11-18T12:24:46;101714.78;;;7.76;100.00
58534;BME280;44109;52.398;7.024;2023-11-18T12:27:56;101702.75;;;7.81;100.00
58534;BME280;44109;52.398;7.024;2023-11-18T12:30:44;101693.03;;;7.75;100.00
58534;BME280;44109;52.398;7.024;2023-11-18T12:34:01;101682.00;;;7.75;100.00
58534;BME280;44109;52.398;7.024;2023-11-18T12:40:27;101676.13;;;7.76;100.00
58534;BME280;44109;52.398;7.024;2023-11-18T12:43:16;101674.50;;;7.75;100.00
58534;BME280;44109;52.398;7.024;2023-11-18T12:46:13;101664.63;;;7.74;100.00
58534;BME280;44109;52.398;7.024;2023-11-18T12:49:04;101656.31;;;7.74;100.00
58534;BME280;44109;52.398;7.024;2023-11-18T12:51:32;101650.16;;;7.77;100.00
58534;BME280;44109;52.398;7.024;2023-11-18T12:54:04;101585.44;;;7.40;100.00
58534;BME280;44109;52.398;7.024;2023-11-18T12:56:33;101633.25;;;7.79;100.00
58534;BME280;44109;52.398;7.024;2023-11-18T12:59:02;101626.41;;;7.76;100.00
58534;BME280;44109;52.398;7.024;2023-11-18T13:01:33;101614.28;;;7.69;100.00
58534;BME280;44109;52.398;7.024;2023-11-18T13:04:02;101611.97;;;7.71;100.00
58534;BME280;44109;52.398;7.024;2023-11-18T13:06:29;101599.47;;;7.73;100.00
58534;BME280;44109;52.398;7.024;2023-11-18T13:08:57;101600.78;;;7.67;100.00
58534;BME280;44109;52.398;7.024;2023-11-18T13:11:25;101593.34;;;7.68;100.00